2R4 weather

Peter Prince Field
Milton, Florida, United States

Public forecast

Using degrees Fahrenheit for public forecast. Weather courtesy of forecast.io.

Closest aviation weather report (METAR) to Peter Prince Field

Closest report is Whiting Field Naval Air Station South Airport, 4.3 nm (7.9 km) NNW. Retrieved 2019/12/09 00:56 UTC (60 minutes ago):

KNDZ 090056Z 11008KT 8SM -RA SCT020 BKN039 OVC049 18/17 A3005 RMK RAB09 SLP162 P0000 T01830167

Closest aviation forecast (TAF) to Peter Prince Field

Forecast is more than 12 hours old.

Closest forecast is Whiting Field Naval Air Station - North, 5.4 nm (10.0 km) NNW. Retrieved 2015/11/30 15:15 UTC (4 years ago):

TAF COR KNSE 301500Z 3015/0115 13004KT 9999 FEW040 BKN200 QNH3002INS FM301800 15006KT 9999 SCT040 SCT150 BKN200 QNH2997INS TEMPO 3019/0100 BKN040 FM010300 17003KT 6000 BR SCT008 BKN035 OVC150 QNH3001INS TEMPO 0103/0106 1600 BR BKN004 OVC008 FM010700 16003KT 0800 FG VV001 QNH3002INS FM011400 16006KT 4800 BR VCSH SCT002 BKN010 OVC050 COR QNH2996INS T26/3019Z T18/0110Z COR 1508 FN20031